Newton, Texas
Current Conditions -  °F | °C
As of 12:55 PM on Thursday 23 Oct 2014 (Local Time) from KJAS Reporting Station
Clear Clear  
Wind Chill: 67°   Ceiling: Unl
Heat Index: 67°   Visibility: 10mi
Dew Point: 52°   Wind: 0mph
Humidity: 59%   Direction: NA
Pressure: 30.16"   Gusts: NA
Location:  30.85°N, 93.76°W
Report Text: KJAS 231755Z AUTO 00000KT 10SM CLR 19/11 A3016 RMK AO2 T01920110
Loading
Personal Weather Stations






























Interactive Weather Map
Tropical Storm Tracking
New forecast layout! Learn more

10-Day Weather Forecast

Advertisements
Track Severe Weather on mobile